Time;durP1;ratioP1;P1;durP2;ratioP2;P2;SDS_P1;SDS_P2;PMS_P1;PMS_P2;Temp;Humidity;BMP_temperature;BMP_pressure;BME280_temperature;BME280_humidity;BME280_pressure;Samples;Min_cycle;Max_cycle;Signal;HPM_P1;HPM_P2
2022/03/01 00:02:24;;;;;;;16.13;7.23;;;1.50;75.40;;;;;;5092165;28;20296;-74
2022/03/01 00:04:49;;;;;;;11.87;7.87;;;1.40;75.80;;;;;;5092404;28;20185;-74
2022/03/01 00:07:15;;;;;;;12.20;7.10;;;1.40;76.00;;;;;;5092177;28;20422;-74
2022/03/01 00:09:41;;;;;;;13.37;8.00;;;1.40;76.10;;;;;;5092266;28;20722;-74
2022/03/01 00:12:07;;;;;;;16.27;7.77;;;1.50;76.50;;;;;;5092253;28;20212;-74
2022/03/01 00:14:33;;;;;;;16.08;8.52;;;1.50;76.90;;;;;;5092659;28;20695;-75
2022/03/01 00:16:59;;;;;;;13.80;7.17;;;1.40;77.30;;;;;;5092264;28;20188;-74
2022/03/01 00:19:27;;;;;;;14.80;7.45;;;1.40;78.10;;;;;;5091096;28;20427;-74
2022/03/01 00:21:53;;;;;;;15.05;8.40;;;1.40;78.10;;;;;;5092187;28;20666;-74
2022/03/01 00:24:19;;;;;;;14.52;7.28;;;1.30;78.10;;;;;;5092376;28;20226;-74
2022/03/01 00:26:44;;;;;;;14.57;8.37;;;1.20;78.60;;;;;;5092439;28;20185;-74
2022/03/01 00:29:10;;;;;;;14.13;8.50;;;1.20;79.40;;;;;;5092598;28;20177;-74
2022/03/01 00:31:36;;;;;;;13.83;8.33;;;1.10;80.00;;;;;;5092307;28;20285;-75
2022/03/01 00:34:01;;;;;;;14.13;8.27;;;1.10;81.30;;;;;;5091049;28;20231;-75
2022/03/01 00:36:27;;;;;;;13.40;8.07;;;1.10;81.80;;;;;;5092139;28;20188;-74
2022/03/01 00:38:53;;;;;;;17.70;8.77;;;1.10;81.40;;;;;;5091792;28;20232;-74
2022/03/01 00:41:19;;;;;;;13.73;8.23;;;1.00;81.70;;;;;;5091662;28;20212;-74
2022/03/01 00:43:53;;;;;;;16.30;8.73;;;1.10;82.10;;;;;;5091813;28;20179;-74
2022/03/01 00:46:19;;;;;;;14.77;9.05;;;1.10;82.60;;;;;;5091784;28;20757;-74
2022/03/01 00:48:45;;;;;;;16.75;8.32;;;1.10;83.10;;;;;;5090551;28;20174;-74
2022/03/01 00:51:11;;;;;;;14.10;9.17;;;1.20;82.80;;;;;;5090639;28;20522;-74
2022/03/01 00:53:36;;;;;;;12.33;8.30;;;1.10;84.00;;;;;;5091137;28;20703;-74
2022/03/01 00:56:05;;;;;;;15.13;8.60;;;0.90;84.60;;;;;;5091466;28;20227;-74
2022/03/01 00:58:31;;;;;;;15.18;8.65;;;0.80;85.60;;;;;;5091874;28;20263;-74
2022/03/01 01:00:57;;;;;;;17.83;8.85;;;0.70;86.90;;;;;;5090298;28;20202;-75
2022/03/01 01:03:23;;;;;;;16.57;8.43;;;0.60;87.20;;;;;;5091868;28;20183;-75
2022/03/01 01:05:48;;;;;;;13.80;7.70;;;0.60;87.20;;;;;;5091745;28;20180;-75
2022/03/01 01:08:14;;;;;;;18.07;7.90;;;0.50;88.10;;;;;;5091570;28;20263;-74
2022/03/01 01:10:40;;;;;;;14.23;8.00;;;0.40;88.80;;;;;;5091405;28;20222;-74
2022/03/01 01:13:05;;;;;;;15.67;9.07;;;0.30;89.70;;;;;;5091128;28;20190;-74
2022/03/01 01:15:31;;;;;;;13.53;8.20;;;0.30;89.30;;;;;;5090976;28;20182;-74
2022/03/01 01:17:57;;;;;;;12.60;7.50;;;0.30;90.10;;;;;;5091035;28;20183;-74
2022/03/01 01:20:22;;;;;;;18.37;8.53;;;0.20;90.40;;;;;;5090828;28;20226;-76
2022/03/01 01:22:48;;;;;;;19.80;8.57;;;0.20;90.30;;;;;;5090667;28;20681;-76
2022/03/01 01:25:19;;;;;;;15.00;8.70;;;0.10;90.40;;;;;;5090884;28;20176;-76
2022/03/01 01:27:47;;;;;;;13.43;7.75;;;0.10;90.60;;;;;;5090595;28;20179;-75
2022/03/01 01:30:16;;;;;;;12.23;7.45;;;0.00;90.90;;;;;;5090620;28;20660;-75
2022/03/01 01:32:42;;;;;;;11.95;7.68;;;0.00;90.90;;;;;;5090647;28;20188;-74
2022/03/01 01:35:10;;;;;;;19.58;8.68;;;0.00;91.30;;;;;;5090523;28;20843;-74
2022/03/01 01:37:36;;;;;;;12.80;8.05;;;-0.10;91.40;;;;;;5089143;28;20218;-74
2022/03/01 01:40:04;;;;;;;13.93;7.90;;;-0.20;92.00;;;;;;5090619;28;20220;-75
2022/03/01 01:42:30;;;;;;;14.68;7.63;;;-0.20;92.00;;;;;;5090581;28;20862;-74
2022/03/01 01:44:55;;;;;;;16.93;8.40;;;-0.20;92.20;;;;;;5090428;28;20187;-74
2022/03/01 01:47:21;;;;;;;16.30;8.10;;;-0.30;92.30;;;;;;5090574;28;20225;-75
2022/03/01 01:49:47;;;;;;;14.37;8.40;;;-0.40;92.50;;;;;;5090454;28;20700;-75
2022/03/01 01:52:12;;;;;;;12.93;7.90;;;-0.40;92.80;;;;;;5090882;28;20695;-74
2022/03/01 01:54:38;;;;;;;13.57;6.90;;;-0.50;92.70;;;;;;5090605;28;20467;-74
2022/03/01 01:57:33;;;;;;;16.03;7.30;;;-0.40;92.80;;;;;;5090816;28;20177;-74
2022/03/01 02:00:00;;;;;;;15.05;8.10;;;-0.50;93.10;;;;;;5081283;28;20434;-74
2022/03/01 02:02:26;;;;;;;13.48;8.25;;;-0.60;93.70;;;;;;5072107;28;20214;-75
2022/03/01 02:04:53;;;;;;;12.83;8.60;;;-0.60;93.90;;;;;;5090452;28;20179;-75
2022/03/01 02:07:18;;;;;;;15.93;8.18;;;-0.70;94.30;;;;;;5090521;28;20286;-74
2022/03/01 02:09:44;;;;;;;16.67;8.17;;;-0.70;94.30;;;;;;5090429;28;20282;-74
2022/03/01 02:12:10;;;;;;;13.93;8.70;;;-0.70;94.30;;;;;;5089036;28;20688;-74
2022/03/01 02:14:37;;;;;;;16.10;8.60;;;-0.90;94.90;;;;;;5090401;28;20188;-74
2022/03/01 02:17:06;;;;;;;13.13;8.10;;;-0.80;95.20;;;;;;5090409;28;20413;-74
2022/03/01 02:19:32;;;;;;;12.50;7.57;;;-0.90;95.30;;;;;;5088861;28;20220;-73
2022/03/01 02:21:59;;;;;;;15.30;8.70;;;-0.90;95.70;;;;;;5088711;28;20243;-74
2022/03/01 02:24:29;;;;;;;19.90;9.55;;;-1.00;95.50;;;;;;5090359;28;20183;-74
2022/03/01 02:26:59;;;;;;;13.50;7.72;;;-1.10;95.90;;;;;;5090164;28;20655;-75
2022/03/01 02:29:27;;;;;;;14.45;8.43;;;-1.10;96.20;;;;;;5089949;28;20196;-74
2022/03/01 02:31:55;;;;;;;13.90;8.18;;;-1.10;96.00;;;;;;5089686;28;20215;-75
2022/03/01 02:34:20;;;;;;;11.55;7.10;;;-1.00;96.10;;;;;;5088398;28;20184;-74
2022/03/01 02:36:47;;;;;;;16.07;8.70;;;-1.00;96.50;;;;;;5089703;28;20230;-74
2022/03/01 02:39:13;;;;;;;13.55;8.80;;;-0.90;96.20;;;;;;5088147;28;20211;-75
2022/03/01 02:41:41;;;;;;;15.75;8.63;;;-0.90;95.90;;;;;;5089129;28;20240;-75
2022/03/01 02:44:07;;;;;;;14.50;8.05;;;-0.80;96.00;;;;;;5090720;28;20209;-73
2022/03/01 02:46:33;;;;;;;12.23;7.82;;;-0.90;95.50;;;;;;5090190;28;20263;-73
2022/03/01 02:48:59;;;;;;;13.65;8.20;;;-0.80;95.50;;;;;;5087985;28;20204;-73
2022/03/01 02:51:25;;;;;;;18.45;8.88;;;-0.80;95.10;;;;;;5089041;28;20203;-73
2022/03/01 02:53:51;;;;;;;14.93;8.00;;;-0.80;95.10;;;;;;5088972;28;20187;-74
2022/03/01 02:56:16;;;;;;;13.77;8.00;;;-0.70;95.20;;;;;;5089206;28;20909;-73
2022/03/01 02:58:42;;;;;;;13.47;8.77;;;-0.80;95.20;;;;;;5088959;28;20238;-73
2022/03/01 03:01:08;;;;;;;13.30;9.13;;;-0.80;95.70;;;;;;5087508;28;20244;-73
2022/03/01 03:03:34;;;;;;;17.83;9.40;;;-0.80;95.90;;;;;;5089152;28;20228;-73
2022/03/01 03:06:00;;;;;;;14.07;9.17;;;-1.00;96.10;;;;;;5089047;28;20270;-73
2022/03/01 03:08:26;;;;;;;16.87;8.30;;;-1.10;96.40;;;;;;5087680;28;20416;-74
2022/03/01 03:10:51;;;;;;;18.30;8.87;;;-1.20;96.80;;;;;;5089350;28;20811;-75
2022/03/01 03:13:17;;;;;;;16.70;8.60;;;-1.30;97.20;;;;;;5087977;28;20171;-74
2022/03/01 03:15:43;;;;;;;19.97;9.30;;;-1.30;97.30;;;;;;5089469;28;20666;-74
2022/03/01 03:18:08;;;;;;;15.87;8.43;;;-1.20;97.20;;;;;;5093530;28;20471;-74
2022/03/01 03:20:34;;;;;;;13.83;9.23;;;-1.30;97.20;;;;;;5094027;28;20199;-74
2022/03/01 03:23:00;;;;;;;18.40;9.27;;;-1.40;98.00;;;;;;5095654;28;20249;-75
2022/03/01 03:25:25;;;;;;;12.60;7.63;;;-1.40;98.10;;;;;;5095863;28;20291;-74
2022/03/01 03:27:51;;;;;;;15.30;8.90;;;-1.40;98.60;;;;;;5095507;28;20415;-74
2022/03/01 03:30:17;;;;;;;14.10;8.77;;;-1.40;98.80;;;;;;5094022;28;20632;-73
2022/03/01 03:32:42;;;;;;;16.40;9.03;;;-1.40;98.50;;;;;;5095361;28;20247;-74
2022/03/01 03:35:08;;;;;;;16.17;8.23;;;-1.50;98.70;;;;;;5095408;28;20214;-74
2022/03/01 03:37:34;;;;;;;11.67;8.20;;;-1.60;98.80;;;;;;5095182;28;20217;-73
2022/03/01 03:40:00;;;;;;;12.80;8.65;;;-1.60;98.90;;;;;;5095251;28;20544;-73
2022/03/01 03:42:26;;;;;;;13.30;8.20;;;-1.60;98.90;;;;;;5093652;28;20214;-74
2022/03/01 03:44:52;;;;;;;15.87;8.93;;;-1.60;98.60;;;;;;5095192;28;20461;-74
2022/03/01 03:47:17;;;;;;;17.80;8.37;;;-1.70;98.80;;;;;;5095256;28;20621;-73
2022/03/01 03:49:43;;;;;;;16.13;9.30;;;-1.70;99.20;;;;;;5093665;28;20183;-74
2022/03/01 03:52:09;;;;;;;15.00;7.67;;;-1.70;99.40;;;;;;5095059;28;20304;-74
2022/03/01 03:54:35;;;;;;;13.70;8.53;;;-1.80;99.60;;;;;;5095210;28;20623;-74
2022/03/01 03:57:07;;;;;;;14.05;8.60;;;-1.80;99.90;;;;;;5093597;28;20186;-73
2022/03/01 03:59:34;;;;;;;19.38;9.20;;;-1.80;99.90;;;;;;5094944;28;20179;-74
2022/03/01 04:02:00;;;;;;;13.30;7.70;;;-1.80;99.40;;;;;;5094676;28;20248;-74
2022/03/01 04:04:27;;;;;;;12.98;8.32;;;-1.90;99.60;;;;;;5094725;28;20246;-74
2022/03/01 04:06:52;;;;;;;13.77;8.17;;;-2.00;99.90;;;;;;5093513;28;21016;-74
2022/03/01 04:09:18;;;;;;;12.47;8.00;;;-2.10;99.90;;;;;;5094883;28;20179;-73
2022/03/01 04:11:43;;;;;;;16.60;8.13;;;-2.10;99.90;;;;;;5094971;28;20202;-73
2022/03/01 04:14:09;;;;;;;14.87;9.13;;;-2.10;99.90;;;;;;5061248;28;20287;-75
2022/03/01 04:16:35;;;;;;;13.83;8.20;;;-2.20;99.90;;;;;;5093560;28;20658;-74
2022/03/01 04:19:00;;;;;;;13.63;8.40;;;-2.20;99.90;;;;;;5095608;28;20224;-73
2022/03/01 04:21:26;;;;;;;13.20;7.70;;;-2.20;99.90;;;;;;5093140;28;20268;-73
2022/03/01 04:23:52;;;;;;;13.20;7.87;;;-2.20;99.90;;;;;;5094734;28;20178;-73
2022/03/01 04:26:17;;;;;;;12.40;7.60;;;-2.20;99.90;;;;;;5094886;28;20710;-73
2022/03/01 04:28:44;;;;;;;10.50;7.40;;;-2.20;99.90;;;;;;5092732;28;20762;-74
2022/03/01 04:31:10;;;;;;;17.48;8.20;;;-2.30;99.90;;;;;;5091291;28;20511;-74
2022/03/01 04:33:35;;;;;;;10.98;7.55;;;-2.30;99.90;;;;;;5091545;28;20972;-74
2022/03/01 04:36:02;;;;;;;15.20;8.77;;;-2.30;99.90;;;;;;5090001;28;20281;-74
2022/03/01 04:38:33;;;;;;;14.18;8.90;;;-2.30;99.90;;;;;;5091351;28;20174;-74
2022/03/01 04:40:59;;;;;;;18.20;9.40;;;-2.30;99.90;;;;;;5091261;28;20202;-74
2022/03/01 04:43:25;;;;;;;14.55;7.97;;;-2.40;99.90;;;;;;5089936;28;20710;-73
2022/03/01 04:45:50;;;;;;;11.17;7.23;;;-2.40;99.90;;;;;;5091218;28;20266;-74
2022/03/01 04:48:16;;;;;;;14.20;7.73;;;-2.40;99.90;;;;;;5091223;28;20187;-74
2022/03/01 04:50:42;;;;;;;42.93;21.23;;;-2.40;99.90;;;;;;5090971;28;20243;-74
2022/03/01 04:53:07;;;;;;;31.10;14.47;;;-2.40;99.90;;;;;;5089550;28;20577;-73
2022/03/01 04:55:34;;;;;;;25.60;13.40;;;-2.50;99.90;;;;;;5091032;28;20261;-74
2022/03/01 04:58:00;;;;;;;23.88;12.32;;;-2.50;99.90;;;;;;5089663;28;20194;-73
2022/03/01 05:00:26;;;;;;;22.08;11.10;;;-2.50;99.90;;;;;;5090772;28;20219;-74
2022/03/01 05:02:52;;;;;;;19.10;9.27;;;-2.50;99.90;;;;;;5090774;28;20675;-75
2022/03/01 05:05:18;;;;;;;16.13;8.70;;;-2.50;99.90;;;;;;5090975;28;20170;-75
2022/03/01 05:07:46;;;;;;;12.70;7.63;;;-2.60;99.90;;;;;;5091044;28;20643;-74
2022/03/01 05:10:13;;;;;;;11.70;8.43;;;-2.70;99.90;;;;;;5090791;28;20428;-75
2022/03/01 05:12:52;;;;;;;14.38;7.55;;;-2.70;99.90;;;;;;5090695;28;20944;-75
2022/03/01 05:15:19;;;;;;;13.07;7.25;;;-2.90;99.90;;;;;;5090939;28;20174;-75
2022/03/01 05:17:46;;;;;;;11.98;7.68;;;-2.80;99.90;;;;;;5090973;28;20189;-75
2022/03/01 05:20:14;;;;;;;13.18;7.72;;;-3.00;99.90;;;;;;5090622;28;20610;-75
2022/03/01 05:22:41;;;;;;;16.92;8.70;;;-3.00;99.90;;;;;;5088920;28;20256;-75
2022/03/01 05:25:09;;;;;;;11.10;7.05;;;-3.00;99.90;;;;;;5090665;28;20191;-75
2022/03/01 05:27:36;;;;;;;12.02;7.38;;;-2.90;99.90;;;;;;5089468;28;20586;-75
2022/03/01 05:30:02;;;;;;;12.15;7.65;;;-2.90;99.90;;;;;;5087944;28;20666;-75
2022/03/01 05:32:28;;;;;;;13.82;7.38;;;-2.80;99.90;;;;;;5089625;28;20277;-75
2022/03/01 05:34:54;;;;;;;16.70;7.83;;;-2.80;99.90;;;;;;5088084;28;20178;-75
2022/03/01 05:37:19;;;;;;;13.20;8.50;;;-2.90;99.90;;;;;;5088067;28;20182;-75
2022/03/01 05:39:45;;;;;;;11.57;7.90;;;-3.00;99.90;;;;;;5088977;28;20183;-75
2022/03/01 05:42:11;;;;;;;12.93;8.17;;;-3.20;99.90;;;;;;5088978;28;20206;-75
2022/03/01 05:44:36;;;;;;;14.00;7.80;;;-3.10;99.90;;;;;;5087628;28;20182;-75
2022/03/01 05:47:02;;;;;;;12.97;7.83;;;-3.10;99.90;;;;;;5088923;28;20171;-75
2022/03/01 05:49:28;;;;;;;12.40;7.57;;;-3.00;99.90;;;;;;5089234;28;20208;-75
2022/03/01 05:51:53;;;;;;;15.40;8.37;;;-3.10;99.90;;;;;;5089018;28;20210;-75
2022/03/01 05:54:19;;;;;;;15.37;7.47;;;-3.00;99.90;;;;;;5087511;28;20193;-75
2022/03/01 05:56:45;;;;;;;32.83;14.97;;;-2.90;99.90;;;;;;5089191;28;20231;-74
2022/03/01 05:59:10;;;;;;;48.43;21.87;;;-3.00;99.90;;;;;;5089088;28;20179;-75
2022/03/01 06:01:36;;;;;;;39.17;18.20;;;-3.00;99.90;;;;;;5087243;28;20218;-75
2022/03/01 06:04:02;;;;;;;27.23;13.20;;;-3.10;99.90;;;;;;5088855;28;20186;-75
2022/03/01 06:06:28;;;;;;;20.60;10.60;;;-3.10;99.90;;;;;;5088429;28;20427;-75
2022/03/01 06:08:53;;;;;;;13.13;8.63;;;-3.10;99.90;;;;;;5088610;28;20452;-75
2022/03/01 06:11:19;;;;;;;16.83;8.67;;;-3.20;99.90;;;;;;5088010;28;20209;-75
2022/03/01 06:13:45;;;;;;;13.50;8.60;;;-3.10;99.90;;;;;;5087892;28;20197;-75
2022/03/01 06:16:10;;;;;;;17.50;9.13;;;-3.20;99.90;;;;;;5088287;28;20186;-75
2022/03/01 06:18:36;;;;;;;13.70;7.83;;;-3.20;99.90;;;;;;5088500;28;20316;-75
2022/03/01 06:21:03;;;;;;;31.83;7.73;;;-3.10;99.90;;;;;;5088520;28;20577;-76
2022/03/01 06:23:30;;;;;;;20.52;7.28;;;-3.00;99.90;;;;;;5089476;28;20182;-75
2022/03/01 06:25:56;;;;;;;22.63;7.60;;;-3.00;99.90;;;;;;5089296;28;20187;-75
2022/03/01 06:28:21;;;;;;;11.30;6.83;;;-3.00;99.90;;;;;;5089280;28;20182;-75
2022/03/01 06:30:47;;;;;;;11.70;7.47;;;-3.00;99.90;;;;;;5089200;28;20238;-75
2022/03/01 06:33:13;;;;;;;12.70;7.47;;;-2.90;99.90;;;;;;5089234;28;20182;-75
2022/03/01 06:35:39;;;;;;;12.60;7.32;;;-2.80;99.90;;;;;;5087877;28;20648;-75
2022/03/01 06:38:05;;;;;;;16.80;7.77;;;-2.70;99.60;;;;;;5089176;28;20214;-75
2022/03/01 06:40:30;;;;;;;14.87;7.90;;;-2.70;99.80;;;;;;5088737;28;20214;-75
2022/03/01 06:42:56;;;;;;;11.37;6.80;;;-2.70;99.60;;;;;;5087529;28;20966;-75
2022/03/01 06:45:22;;;;;;;14.93;7.00;;;-2.40;99.60;;;;;;5087426;28;20186;-75
2022/03/01 06:47:48;;;;;;;11.97;8.00;;;-2.50;99.20;;;;;;5088844;28;20185;-74
2022/03/01 06:50:14;;;;;;;15.23;8.53;;;-2.50;99.60;;;;;;5087317;28;20432;-74
2022/03/01 06:52:39;;;;;;;16.70;7.20;;;-2.30;99.20;;;;;;5086789;28;20460;-75
2022/03/01 06:55:07;;;;;;;12.83;7.10;;;-1.60;98.20;;;;;;5088894;28;20436;-75
2022/03/01 06:57:33;;;;;;;27.38;7.75;;;-0.80;96.80;;;;;;5088658;28;20389;-76
2022/03/01 06:59:59;;;;;;;17.45;7.90;;;0.00;94.40;;;;;;5088309;28;20184;-75
2022/03/01 07:02:28;;;;;;;13.37;8.10;;;0.60;92.20;;;;;;5088214;28;20590;-75
2022/03/01 07:04:54;;;;;;;15.00;8.10;;;0.80;91.90;;;;;;5088226;28;20179;-75
2022/03/01 07:07:22;;;;;;;15.13;10.13;;;1.10;90.70;;;;;;5088144;28;20180;-75
2022/03/01 07:09:48;;;;;;;22.58;12.50;;;1.20;90.30;;;;;;5088123;28;20413;-75
2022/03/01 07:12:14;;;;;;;19.48;12.20;;;1.30;90.40;;;;;;5087854;28;20231;-75
2022/03/01 07:14:40;;;;;;;26.17;12.07;;;1.60;89.30;;;;;;5087774;28;20193;-76
2022/03/01 07:17:05;;;;;;;20.10;12.73;;;1.90;87.20;;;;;;5087731;28;20189;-75
2022/03/01 07:19:31;;;;;;;20.97;13.53;;;2.30;85.60;;;;;;5086302;28;20564;-75
2022/03/01 07:21:57;;;;;;;20.87;12.50;;;2.70;85.10;;;;;;5087611;28;20210;-76
2022/03/01 07:24:22;;;;;;;27.40;13.33;;;3.60;80.90;;;;;;5087734;28;20208;-75
2022/03/01 07:26:49;;;;;;;19.67;12.70;;;4.30;78.00;;;;;;5086162;28;20269;-75
2022/03/01 07:29:14;;;;;;;24.00;12.37;;;4.50;74.30;;;;;;5087473;28;21041;-76
2022/03/01 07:31:40;;;;;;;22.73;11.97;;;5.00;72.40;;;;;;5085598;28;20517;-75
2022/03/01 07:34:06;;;;;;;17.33;10.83;;;5.30;71.30;;;;;;5087564;28;20561;-76
2022/03/01 07:36:32;;;;;;;19.20;11.87;;;5.50;67.90;;;;;;5087368;28;20219;-75
2022/03/01 07:38:57;;;;;;;22.40;13.63;;;5.40;68.70;;;;;;5087474;28;20179;-74
2022/03/01 07:41:23;;;;;;;24.63;13.93;;;5.70;68.00;;;;;;5068988;28;20688;-75
2022/03/01 07:43:49;;;;;;;43.20;13.97;;;5.80;66.70;;;;;;5087402;28;20859;-76
2022/03/01 07:46:15;;;;;;;17.37;10.80;;;5.40;67.10;;;;;;5087505;28;20300;-76
2022/03/01 07:48:42;;;;;;;25.03;13.23;;;5.10;66.00;;;;;;5087447;28;20202;-76
2022/03/01 07:51:08;;;;;;;21.33;13.33;;;4.50;69.20;;;;;;5087036;28;20440;-76
2022/03/01 07:53:34;;;;;;;24.70;14.53;;;4.00;70.90;;;;;;5087234;28;20448;-76
2022/03/01 07:55:59;;;;;;;22.63;14.00;;;3.70;76.30;;;;;;5087160;28;20405;-75
2022/03/01 07:58:26;;;;;;;25.10;15.87;;;3.30;78.20;;;;;;5087258;28;20309;-75
2022/03/01 08:00:52;;;;;;;23.33;14.20;;;3.40;81.60;;;;;;5086833;28;20216;-75
2022/03/01 08:03:18;;;;;;;18.33;11.40;;;3.40;82.20;;;;;;5087980;28;20470;-75
2022/03/01 08:05:45;;;;;;;24.47;11.33;;;3.30;82.90;;;;;;5091264;28;20187;-75
2022/03/01 08:08:11;;;;;;;21.13;11.25;;;3.80;82.90;;;;;;5089946;28;20186;-75
2022/03/01 08:10:37;;;;;;;18.10;10.90;;;4.20;83.20;;;;;;5091347;28;20905;-75
2022/03/01 08:13:03;;;;;;;27.00;13.70;;;4.50;79.70;;;;;;5091222;28;20503;-76
2022/03/01 08:15:28;;;;;;;23.37;13.90;;;4.90;80.40;;;;;;5090924;28;20423;-75
2022/03/01 08:17:57;;;;;;;20.57;13.00;;;5.30;77.90;;;;;;5089508;28;20190;-75
2022/03/01 08:20:26;;;;;;;18.37;11.07;;;5.70;76.60;;;;;;5090832;28;20202;-75
2022/03/01 08:22:52;;;;;;;21.57;10.80;;;5.80;74.80;;;;;;5090810;28;20885;-74
2022/03/01 08:25:19;;;;;;;19.93;11.40;;;6.20;71.80;;;;;;5090738;28;20474;-75
2022/03/01 08:27:46;;;;;;;18.90;11.10;;;6.50;69.40;;;;;;5090491;28;20412;-76
2022/03/01 08:30:15;;;;;;;15.33;9.87;;;6.80;67.50;;;;;;5089068;28;20466;-76
2022/03/01 08:32:44;;;;;;;18.80;11.20;;;7.20;64.20;;;;;;5090446;28;20522;-75
2022/03/01 08:35:10;;;;;;;22.93;10.63;;;7.50;61.30;;;;;;5072239;28;20431;-75
2022/03/01 08:37:36;;;;;;;14.00;9.57;;;7.40;59.60;;;;;;5090275;28;20428;-75
2022/03/01 08:40:03;;;;;;;13.83;9.60;;;7.40;59.50;;;;;;5090207;28;20433;-74
2022/03/01 08:42:29;;;;;;;20.33;11.80;;;7.50;58.00;;;;;;5090180;28;20209;-76
2022/03/01 08:44:55;;;;;;;20.93;10.30;;;7.90;58.70;;;;;;5090460;28;20412;-76
2022/03/01 08:47:21;;;;;;;18.53;10.00;;;8.10;57.10;;;;;;5090295;28;20187;-76
2022/03/01 08:49:46;;;;;;;17.50;10.40;;;8.70;56.30;;;;;;5090021;28;20262;-75
2022/03/01 08:52:12;;;;;;;15.73;9.37;;;8.80;55.40;;;;;;5089810;28;20444;-76
2022/03/01 08:54:38;;;;;;;19.43;10.70;;;9.00;54.50;;;;;;5090003;28;20678;-76
2022/03/01 08:57:03;;;;;;;19.60;12.50;;;9.40;54.10;;;;;;5090222;28;20923;-75
2022/03/01 08:59:29;;;;;;;13.50;9.90;;;9.70;51.30;;;;;;5089856;28;20209;-75
2022/03/01 09:01:55;;;;;;;21.10;10.50;;;9.70;49.00;;;;;;5089724;28;20240;-75
2022/03/01 09:04:20;;;;;;;12.57;7.97;;;9.90;45.90;;;;;;5090003;28;20174;-76
2022/03/01 09:06:46;;;;;;;14.83;9.97;;;9.80;44.20;;;;;;5090087;28;20672;-76
2022/03/01 09:09:12;;;;;;;12.77;8.10;;;8.90;45.50;;;;;;5089878;28;20175;-76
2022/03/01 09:11:37;;;;;;;12.23;7.57;;;9.70;45.10;;;;;;5088363;28;20210;-76
2022/03/01 09:14:03;;;;;;;16.07;10.30;;;8.60;44.20;;;;;;5089872;28;20820;-76
2022/03/01 09:16:29;;;;;;;12.23;8.13;;;9.90;48.50;;;;;;5087782;28;20313;-76
2022/03/01 09:18:54;;;;;;;24.63;8.50;;;9.30;44.00;;;;;;5089898;28;20187;-76
2022/03/01 09:21:20;;;;;;;11.83;7.50;;;10.00;44.60;;;;;;5088085;28;20241;-76
2022/03/01 09:23:45;;;;;;;13.43;7.77;;;10.10;43.20;;;;;;5088284;28;20187;-76
2022/03/01 09:26:12;;;;;;;10.43;8.17;;;9.20;40.70;;;;;;5089508;28;20198;-76
2022/03/01 09:28:37;;;;;;;9.73;7.17;;;9.70;42.80;;;;;;5089846;28;20904;-76
2022/03/01 09:31:03;;;;;;;13.20;9.20;;;10.10;41.70;;;;;;5089950;28;20432;-76
2022/03/01 09:33:29;;;;;;;10.17;7.03;;;10.30;40.90;;;;;;5088175;28;20201;-75
2022/03/01 09:35:54;;;;;;;12.00;7.77;;;10.10;40.10;;;;;;5089574;28;20307;-76
2022/03/01 09:38:21;;;;;;;20.10;8.40;;;10.70;40.60;;;;;;5089404;28;20939;-76
2022/03/01 09:40:47;;;;;;;10.37;7.73;;;10.00;38.00;;;;;;5089464;28;20209;-75
2022/03/01 09:43:15;;;;;;;11.97;7.70;;;10.20;38.20;;;;;;5089508;28;20459;-76
2022/03/01 09:45:41;;;;;;;10.80;7.20;;;9.90;39.70;;;;;;5089286;28;20415;-76
2022/03/01 09:48:06;;;;;;;12.77;7.33;;;9.40;38.70;;;;;;5089020;28;20413;-75
2022/03/01 09:50:32;;;;;;;10.67;6.87;;;8.90;39.00;;;;;;5089314;28;20726;-77
2022/03/01 09:53:00;;;;;;;23.07;7.23;;;8.60;38.10;;;;;;5089408;28;20184;-76
2022/03/01 09:55:27;;;;;;;7.23;5.90;;;8.50;38.10;;;;;;5089027;28;20432;-76
2022/03/01 09:57:52;;;;;;;9.07;6.13;;;8.90;39.00;;;;;;5089246;28;20415;-76
2022/03/01 10:00:19;;;;;;;7.80;5.73;;;9.10;38.10;;;;;;5089052;28;20440;-76
2022/03/01 10:02:45;;;;;;;7.43;5.73;;;9.20;37.40;;;;;;5089168;28;20212;-76
2022/03/01 10:05:13;;;;;;;10.03;6.07;;;8.40;36.70;;;;;;5089170;28;20416;-76
2022/03/01 10:07:45;;;;;;;8.70;6.10;;;9.60;37.70;;;;;;5087950;28;20519;-77
2022/03/01 10:10:16;;;;;;;10.23;6.50;;;9.80;36.20;;;;;;5088958;28;20483;-75
2022/03/01 10:12:53;;;;;;;9.13;6.80;;;9.70;34.70;;;;;;5088831;28;20416;-75
2022/03/01 10:15:25;;;;;;;7.00;5.33;;;9.90;35.00;;;;;;5087411;28;20419;-75
2022/03/01 10:17:51;;;;;;;8.53;5.43;;;10.20;33.30;;;;;;5088824;28;20421;-76
2022/03/01 10:20:18;;;;;;;10.47;7.13;;;10.30;32.70;;;;;;5091375;28;20531;-77
2022/03/01 10:22:49;;;;;;;7.47;5.80;;;10.60;33.40;;;;;;5089169;28;20230;-76
2022/03/01 10:25:18;;;;;;;9.87;6.30;;;11.00;33.10;;;;;;5088369;28;21066;-75
2022/03/01 10:27:48;;;;;;;8.57;6.00;;;11.70;32.40;;;;;;5087164;28;20452;-77
2022/03/01 10:30:23;;;;;;;8.80;5.90;;;12.00;31.10;;;;;;5070300;28;20433;-75
2022/03/01 10:32:49;;;;;;;8.90;6.30;;;11.90;30.60;;;;;;5088108;28;20412;-77
2022/03/01 10:35:15;;;;;;;10.60;6.57;;;12.30;31.00;;;;;;5086924;28;20421;-75
2022/03/01 10:37:41;;;;;;;8.90;6.33;;;12.50;30.10;;;;;;5086481;28;20194;-76
2022/03/01 10:40:09;;;;;;;8.23;5.60;;;12.80;30.00;;;;;;5088273;28;20190;-76
2022/03/01 10:42:35;;;;;;;8.70;6.70;;;13.10;30.20;;;;;;5088171;28;20216;-76
2022/03/01 10:45:01;;;;;;;11.90;7.80;;;13.80;29.70;;;;;;5088511;28;20499;-76
2022/03/01 10:47:28;;;;;;;8.60;6.40;;;13.70;30.20;;;;;;5088045;28;20532;-76
2022/03/01 10:50:09;;;;;;;8.53;6.70;;;13.80;29.30;;;;;;5069946;28;20199;-77
2022/03/01 10:52:39;;;;;;;7.03;6.03;;;13.90;28.10;;;;;;5088129;28;20418;-76
2022/03/01 10:55:05;;;;;;;8.50;6.00;;;14.30;28.60;;;;;;5088155;28;20496;-77
2022/03/01 10:57:31;;;;;;;9.60;6.43;;;14.60;28.10;;;;;;5088123;28;20472;-76
2022/03/01 10:59:57;;;;;;;31.20;6.50;;;15.00;28.00;;;;;;5088238;28;20426;-76
2022/03/01 11:02:23;;;;;;;8.80;6.77;;;15.20;27.80;;;;;;5087994;28;20222;-76
2022/03/01 11:04:50;;;;;;;7.77;5.87;;;15.50;27.80;;;;;;5087853;28;20909;-76
2022/03/01 11:07:19;;;;;;;11.37;6.27;;;15.70;27.80;;;;;;5088397;28;20423;-76
2022/03/01 11:09:45;;;;;;;8.30;6.10;;;14.80;25.90;;;;;;5088009;28;20945;-76
2022/03/01 11:12:12;;;;;;;8.50;5.80;;;14.50;26.50;;;;;;5088004;28;20432;-77
2022/03/01 11:14:40;;;;;;;8.00;5.80;;;15.10;27.10;;;;;;5088031;28;20465;-76
2022/03/01 11:17:35;;;;;;;11.60;6.53;;;15.70;26.40;;;;;;5086383;28;20511;-76
2022/03/01 11:20:08;;;;;;;8.53;7.00;;;16.10;26.30;;;;;;5071175;28;20986;-75
2022/03/01 11:22:48;;;;;;;12.17;7.17;;;16.00;25.40;;;;;;5086597;28;20475;-77
2022/03/01 11:25:23;;;;;;;11.20;7.10;;;15.50;25.20;;;;;;5087982;28;20404;-76
2022/03/01 11:27:51;;;;;;;14.83;6.70;;;16.20;26.00;;;;;;5087053;28;20554;-77
2022/03/01 11:30:17;;;;;;;17.70;6.10;;;16.40;26.00;;;;;;5086796;28;20440;-76
2022/03/01 11:32:45;;;;;;;11.30;7.53;;;15.70;24.20;;;;;;5088535;28;20781;-76
2022/03/01 11:35:20;;;;;;;9.03;6.67;;;16.30;25.90;;;;;;5088097;28;20417;-77
2022/03/01 11:37:57;;;;;;;6.97;6.10;;;15.80;25.20;;;;;;5086356;28;20424;-76
2022/03/01 11:40:23;;;;;;;10.03;6.70;;;15.90;25.90;;;;;;5090597;28;20440;-76
2022/03/01 11:42:50;;;;;;;8.40;7.07;;;15.60;25.90;;;;;;5091904;28;20862;-78
2022/03/01 11:45:16;;;;;;;9.90;7.00;;;16.30;25.40;;;;;;5091315;28;20412;-75
2022/03/01 11:47:42;;;;;;;8.80;6.20;;;16.00;25.50;;;;;;5102113;28;20434;-75
2022/03/01 11:50:20;;;;;;;8.90;6.13;;;16.10;26.30;;;;;;5095031;28;20832;-76
2022/03/01 11:53:07;;;;;;;7.80;6.50;;;16.50;25.90;;;;;;5092526;28;20197;-77
2022/03/01 11:55:55;;;;;;;13.70;6.70;;;16.70;25.10;;;;;;5091170;28;20431;-76
2022/03/01 11:58:23;;;;;;;9.40;6.60;;;16.60;25.10;;;;;;5092514;28;20431;-76
2022/03/01 12:00:49;;;;;;;13.30;6.53;;;16.10;24.90;;;;;;5092478;28;20463;-77
2022/03/01 12:03:22;;;;;;;9.47;6.50;;;16.40;24.90;;;;;;5092164;28;21223;-76
2022/03/01 12:05:49;;;;;;;11.83;7.20;;;15.90;25.00;;;;;;5092440;28;20962;-76
2022/03/01 12:08:17;;;;;;;7.60;5.83;;;16.20;24.20;;;;;;5090329;28;20545;-75
2022/03/01 12:11:05;;;;;;;9.33;7.10;;;16.20;24.50;;;;;;5073582;28;20977;-75
2022/03/01 12:13:38;;;;;;;7.40;5.57;;;15.70;25.20;;;;;;5091531;28;20421;-76
2022/03/01 12:16:05;;;;;;;8.30;6.80;;;15.60;24.70;;;;;;5090045;28;20416;-76
2022/03/01 12:18:37;;;;;;;9.40;6.83;;;15.80;25.30;;;;;;5091391;28;20460;-77
2022/03/01 12:21:06;;;;;;;11.23;6.37;;;15.50;24.70;;;;;;5091715;28;21012;-77
2022/03/01 12:23:33;;;;;;;6.60;5.83;;;15.40;24.60;;;;;;5091224;28;20460;-76
2022/03/01 12:26:04;;;;;;;10.53;6.03;;;15.80;24.60;;;;;;5089589;28;20511;-76
2022/03/01 12:28:41;;;;;;;7.80;6.30;;;15.90;24.60;;;;;;5073098;28;20474;-77
2022/03/01 12:31:14;;;;;;;9.23;6.53;;;15.90;24.40;;;;;;5089777;28;20444;-77
2022/03/01 12:33:51;;;;;;;9.33;6.87;;;16.30;24.40;;;;;;5091120;28;20492;-77
2022/03/01 12:36:36;;;;;;;10.97;6.60;;;15.60;24.40;;;;;;5091144;28;20427;-77
2022/03/01 12:39:08;;;;;;;10.73;7.37;;;15.20;23.70;;;;;;5091191;28;20768;-77
2022/03/01 12:41:36;;;;;;;12.43;6.87;;;14.80;24.60;;;;;;5090872;28;20992;-76